createdAt,value
2018-08-13T00:01:11.659Z,15.30
2018-08-13T00:03:41.247Z,15.20
2018-08-13T00:06:10.959Z,15.20
2018-08-13T00:08:40.368Z,15.20
2018-08-13T00:11:09.950Z,15.30
2018-08-13T00:13:39.667Z,15.30
2018-08-13T00:16:09.049Z,15.20
2018-08-13T00:18:38.391Z,15.00
2018-08-13T00:21:07.853Z,15.00
2018-08-13T00:23:37.453Z,15.00
2018-08-13T00:26:07.024Z,15.10
2018-08-13T00:28:36.426Z,15.10
2018-08-13T00:31:06.441Z,15.00
2018-08-13T00:33:35.743Z,14.90
2018-08-13T00:36:05.209Z,14.90
2018-08-13T00:38:34.525Z,14.80
2018-08-13T00:41:03.928Z,14.90
2018-08-13T00:43:33.101Z,14.90
2018-08-13T00:46:02.324Z,14.70
2018-08-13T00:48:31.583Z,14.80
2018-08-13T00:51:00.741Z,14.70
2018-08-13T00:53:30.404Z,14.60
2018-08-13T00:55:59.705Z,14.60
2018-08-13T00:58:28.846Z,14.50
2018-08-13T01:03:33.461Z,14.50
2018-08-13T01:06:03.013Z,14.40
2018-08-13T01:08:32.121Z,14.30
2018-08-13T01:11:01.227Z,14.40
2018-08-13T01:13:30.353Z,14.20
2018-08-13T01:15:59.472Z,14.10
2018-08-13T01:18:28.568Z,14.20
2018-08-13T01:20:57.647Z,14.20
2018-08-13T01:23:26.804Z,14.30
2018-08-13T01:25:55.942Z,14.20
2018-08-13T01:28:25.037Z,14.20
2018-08-13T01:30:54.145Z,14.30
2018-08-13T01:33:23.227Z,14.30
2018-08-13T01:35:52.305Z,14.10
2018-08-13T01:38:21.416Z,14.20
2018-08-13T01:40:50.576Z,14.10
2018-08-13T01:43:19.699Z,14.10
2018-08-13T01:45:48.851Z,14.20
2018-08-13T01:48:17.973Z,14.00
2018-08-13T01:50:47.494Z,14.00
2018-08-13T01:53:16.557Z,14.00
2018-08-13T01:55:45.737Z,13.90
2018-08-13T01:58:14.858Z,13.80
2018-08-13T02:00:43.961Z,13.80
2018-08-13T02:03:13.022Z,13.80
2018-08-13T02:05:42.116Z,13.80
2018-08-13T02:08:11.256Z,13.70
2018-08-13T02:10:40.433Z,13.80
2018-08-13T02:13:09.535Z,13.80
2018-08-13T02:15:38.677Z,13.70
2018-08-13T02:18:07.933Z,13.60
2018-08-13T02:20:37.022Z,13.60
2018-08-13T02:23:06.191Z,13.70
2018-08-13T02:25:35.265Z,13.60
2018-08-13T02:28:04.399Z,13.60
2018-08-13T02:30:33.785Z,13.70
2018-08-13T02:33:02.913Z,13.80
2018-08-13T02:35:32.011Z,13.70
2018-08-13T02:38:01.159Z,13.60
2018-08-13T02:40:30.273Z,13.60
2018-08-13T02:42:59.409Z,13.70
2018-08-13T02:45:28.496Z,13.60
2018-08-13T02:47:57.605Z,13.60
2018-08-13T02:50:26.746Z,13.60
2018-08-13T02:52:55.832Z,13.60
2018-08-13T02:55:25.908Z,13.30
2018-08-13T02:57:55.049Z,13.30
2018-08-13T03:00:24.118Z,13.40
2018-08-13T03:02:53.234Z,13.30
2018-08-13T03:05:22.464Z,13.30
2018-08-13T03:07:51.563Z,13.30
2018-08-13T03:10:20.684Z,13.30
2018-08-13T03:12:49.740Z,13.30
2018-08-13T03:15:18.816Z,13.30
2018-08-13T03:17:47.925Z,13.30
2018-08-13T03:20:17.024Z,13.40
2018-08-13T03:22:46.149Z,13.40
2018-08-13T03:25:15.282Z,13.30
2018-08-13T03:27:44.397Z,13.20
2018-08-13T03:30:13.760Z,13.20
2018-08-13T03:32:42.839Z,13.20
2018-08-13T03:35:12.076Z,13.10
2018-08-13T03:37:41.260Z,13.10
2018-08-13T03:40:12.351Z,13.10
2018-08-13T03:42:41.616Z,13.10
2018-08-13T03:45:12.103Z,13.00
2018-08-13T03:47:41.257Z,13.00
2018-08-13T03:50:11.632Z,13.00
2018-08-13T03:52:41.330Z,13.00
2018-08-13T03:55:11.692Z,13.00
2018-08-13T03:57:41.684Z,13.10
2018-08-13T04:00:15.002Z,13.00
2018-08-13T04:02:44.400Z,13.00
2018-08-13T04:05:14.245Z,12.90
2018-08-13T04:07:43.381Z,12.80
2018-08-13T04:10:13.110Z,12.90
2018-08-13T04:12:43.409Z,12.80
2018-08-13T04:15:14.011Z,12.80
2018-08-13T04:17:43.874Z,12.80
2018-08-13T04:20:13.996Z,12.90
2018-08-13T04:22:43.688Z,12.90
2018-08-13T04:25:12.812Z,12.90
2018-08-13T04:27:42.137Z,12.80
2018-08-13T04:30:15.751Z,12.80
2018-08-13T04:32:46.005Z,13.10
2018-08-13T04:35:15.267Z,13.00
2018-08-13T04:37:45.536Z,12.90
2018-08-13T04:40:16.084Z,12.90
2018-08-13T04:42:46.322Z,12.90
2018-08-13T04:45:15.470Z,13.00
2018-08-13T04:47:49.697Z,13.10
2018-08-13T04:50:18.921Z,13.10
2018-08-13T04:52:48.232Z,13.10
2018-08-13T04:55:18.215Z,13.30
2018-08-13T04:57:47.358Z,13.50
2018-08-13T05:00:16.509Z,13.60
2018-08-13T05:02:45.609Z,13.70
2018-08-13T05:05:14.878Z,13.70
2018-08-13T05:07:44.427Z,13.90
2018-08-13T05:10:13.576Z,13.90
2018-08-13T05:12:42.714Z,14.40
2018-08-13T05:15:12.619Z,15.30
2018-08-13T05:17:41.832Z,15.60
2018-08-13T05:20:11.040Z,15.60
2018-08-13T05:22:40.193Z,15.70
2018-08-13T05:25:10.465Z,15.80
2018-08-13T05:27:40.156Z,15.60
2018-08-13T05:30:11.062Z,15.80
2018-08-13T05:32:40.115Z,16.00
2018-08-13T05:35:09.570Z,16.50
2018-08-13T05:37:39.604Z,16.60
2018-08-13T05:40:10.214Z,16.10
2018-08-13T05:42:39.960Z,16.10
2018-08-13T05:45:10.137Z,16.30
2018-08-13T05:47:39.348Z,16.80
2018-08-13T05:50:10.132Z,16.80
2018-08-13T05:52:39.314Z,17.00
2018-08-13T05:55:09.220Z,16.90
2018-08-13T05:57:38.418Z,16.90
2018-08-13T06:00:10.609Z,17.70
2018-08-13T06:02:41.019Z,17.50
2018-08-13T06:05:11.265Z,16.90
2018-08-13T06:07:41.143Z,16.60
2018-08-13T06:10:11.889Z,16.20
2018-08-13T06:12:41.667Z,16.10
2018-08-13T06:15:12.572Z,15.90
2018-08-13T06:17:41.731Z,16.00
2018-08-13T06:20:12.055Z,15.90
2018-08-13T06:22:42.366Z,15.60
2018-08-13T06:25:13.007Z,15.40
2018-08-13T06:27:42.204Z,14.60
2018-08-13T06:30:14.362Z,14.30
2018-08-13T06:32:43.768Z,14.10
2018-08-13T06:35:13.926Z,14.10
2018-08-13T06:37:44.314Z,14.30
2018-08-13T06:40:13.911Z,14.30
2018-08-13T06:42:43.535Z,14.30
2018-08-13T06:45:12.678Z,14.30
2018-08-13T06:47:42.079Z,14.40
2018-08-13T06:50:13.631Z,14.20
2018-08-13T06:52:43.091Z,14.00
2018-08-13T06:55:12.270Z,13.90
2018-08-13T06:57:41.397Z,13.90
2018-08-13T07:00:12.752Z,13.80
2018-08-13T07:02:42.041Z,13.80
2018-08-13T07:05:11.742Z,13.70
2018-08-13T07:07:41.545Z,13.70
2018-08-13T07:10:12.180Z,13.80
2018-08-13T07:12:43.042Z,14.00
2018-08-13T07:15:12.781Z,14.00
2018-08-13T07:17:41.841Z,13.60
2018-08-13T07:20:14.144Z,13.50
2018-08-13T07:22:43.907Z,13.70
2018-08-13T07:25:13.105Z,13.60
2018-08-13T07:27:42.596Z,13.70
2018-08-13T07:30:13.279Z,13.70
2018-08-13T07:32:42.943Z,13.70
2018-08-13T07:35:12.133Z,13.80
2018-08-13T07:37:41.276Z,13.70
2018-08-13T07:40:12.497Z,13.70
2018-08-13T07:42:41.678Z,13.60
2018-08-13T07:45:10.925Z,13.60
2018-08-13T07:47:40.045Z,13.90
2018-08-13T07:50:11.053Z,14.00
2018-08-13T07:52:40.402Z,14.20
2018-08-13T07:55:10.494Z,14.40
2018-08-13T07:57:39.948Z,14.60
2018-08-13T08:00:18.975Z,14.60
2018-08-13T08:02:48.559Z,14.70
2018-08-13T08:05:17.754Z,14.50
2018-08-13T08:07:46.905Z,14.50
2018-08-13T08:10:17.613Z,14.50
2018-08-13T08:12:46.760Z,14.80
2018-08-13T08:15:18.676Z,14.90
2018-08-13T08:17:47.901Z,15.00
2018-08-13T08:20:17.091Z,15.00
2018-08-13T08:22:46.253Z,14.90
2018-08-13T08:25:18.957Z,14.80
2018-08-13T08:27:48.120Z,14.80
2018-08-13T08:30:17.241Z,14.90
2018-08-13T08:32:46.563Z,14.90
2018-08-13T08:35:17.128Z,15.00
2018-08-13T08:37:46.337Z,15.10
2018-08-13T08:40:18.484Z,15.10
2018-08-13T08:42:48.018Z,15.20
2018-08-13T08:45:22.683Z,14.90
2018-08-13T08:47:52.885Z,15.00
2018-08-13T08:50:22.205Z,15.00
2018-08-13T08:52:51.451Z,15.00
2018-08-13T08:55:20.780Z,14.90
2018-08-13T08:57:50.780Z,14.90
2018-08-13T09:00:21.169Z,14.90
2018-08-13T09:02:50.487Z,15.10
2018-08-13T09:05:20.560Z,15.00
2018-08-13T09:07:49.782Z,15.00
2018-08-13T09:10:19.010Z,14.90
2018-08-13T09:12:48.185Z,15.00
2018-08-13T09:15:17.940Z,14.90
2018-08-13T09:18:04.304Z,14.90
2018-08-13T09:20:44.766Z,15.00
2018-08-13T09:23:25.157Z,15.20
2018-08-13T09:26:05.707Z,15.10
2018-08-13T09:28:46.086Z,15.30
2018-08-13T09:31:23.661Z,15.30
2018-08-13T09:34:04.384Z,15.50
2018-08-13T09:36:33.677Z,15.60
2018-08-13T09:39:02.851Z,15.70
2018-08-13T09:41:31.997Z,15.60
2018-08-13T09:44:01.185Z,15.70
2018-08-13T09:46:30.363Z,15.70
2018-08-13T09:48:59.591Z,16.00
2018-08-13T09:51:28.853Z,16.00
2018-08-13T09:53:58.035Z,15.90
2018-08-13T09:56:27.358Z,16.00
2018-08-13T09:58:56.501Z,16.00
2018-08-13T10:01:25.760Z,16.20
2018-08-13T10:03:54.889Z,16.10
2018-08-13T10:06:24.179Z,16.00
2018-08-13T10:08:53.324Z,16.30
2018-08-13T10:11:22.746Z,16.30
2018-08-13T10:13:52.000Z,16.30
2018-08-13T10:16:21.112Z,16.30
2018-08-13T10:18:50.298Z,16.70
2018-08-13T10:21:19.463Z,16.90
2018-08-13T10:23:48.646Z,16.80
2018-08-13T10:26:17.991Z,16.60
2018-08-13T10:28:47.239Z,16.40
2018-08-13T10:31:16.531Z,16.50
2018-08-13T10:33:46.152Z,16.60
2018-08-13T10:36:15.540Z,16.90
2018-08-13T10:38:44.707Z,17.10
2018-08-13T10:41:14.415Z,17.30
2018-08-13T10:43:43.708Z,17.50
2018-08-13T10:46:12.919Z,17.70
2018-08-13T10:48:42.365Z,17.50
2018-08-13T10:51:11.564Z,17.40
2018-08-13T10:53:41.014Z,17.20
2018-08-13T10:56:10.464Z,17.20
2018-08-13T10:58:39.569Z,17.40
2018-08-13T11:01:08.790Z,17.60
2018-08-13T11:03:38.042Z,17.50
2018-08-13T11:06:07.151Z,17.60
2018-08-13T11:08:36.275Z,17.90
2018-08-13T11:11:05.714Z,17.90
2018-08-13T11:13:34.999Z,18.80
2018-08-13T11:16:04.262Z,18.80
2018-08-13T11:18:33.763Z,18.70
2018-08-13T11:21:03.011Z,18.50
2018-08-13T11:23:32.873Z,18.50
2018-08-13T11:26:02.038Z,18.70
2018-08-13T11:28:31.305Z,18.50
2018-08-13T11:31:00.567Z,18.60
2018-08-13T11:33:29.915Z,18.70
2018-08-13T11:35:59.400Z,18.60
2018-08-13T11:38:28.641Z,18.50
2018-08-13T11:40:57.859Z,18.50
2018-08-13T11:43:27.021Z,18.40
2018-08-13T11:45:56.276Z,18.60
2018-08-13T11:48:25.440Z,18.40
2018-08-13T11:50:54.633Z,18.50
2018-08-13T11:53:23.810Z,18.40
2018-08-13T11:55:53.121Z,18.20
2018-08-13T11:58:22.839Z,18.10
2018-08-13T12:00:52.119Z,18.10
2018-08-13T12:03:21.353Z,18.10
2018-08-13T12:05:50.487Z,18.00
2018-08-13T12:08:19.664Z,18.20
2018-08-13T12:10:48.832Z,18.10
2018-08-13T12:13:17.992Z,18.10
2018-08-13T12:15:47.150Z,18.20
2018-08-13T12:18:16.312Z,18.20
2018-08-13T12:20:45.472Z,18.00
2018-08-13T12:23:14.663Z,17.90
2018-08-13T12:25:43.882Z,18.00
2018-08-13T12:28:13.046Z,17.90
2018-08-13T12:30:42.288Z,18.00
2018-08-13T12:33:11.873Z,18.20
2018-08-13T12:35:41.124Z,18.10
2018-08-13T12:38:10.460Z,18.10
2018-08-13T12:40:39.594Z,18.40
2018-08-13T12:43:08.764Z,18.50
2018-08-13T12:45:37.848Z,18.70
2018-08-13T12:48:07.278Z,19.00
2018-08-13T12:50:36.512Z,19.40
2018-08-13T12:53:05.717Z,19.50
2018-08-13T12:55:34.861Z,20.00
2018-08-13T12:58:04.147Z,20.10
2018-08-13T13:00:33.367Z,20.50
2018-08-13T13:03:02.660Z,20.70
2018-08-13T13:05:31.928Z,20.70
2018-08-13T13:08:01.106Z,20.50
2018-08-13T13:10:30.193Z,21.20
2018-08-13T13:12:59.462Z,21.60
2018-08-13T13:15:28.659Z,21.60
2018-08-13T13:17:57.781Z,22.10
2018-08-13T13:20:26.977Z,22.00
2018-08-13T13:22:56.971Z,21.80
2018-08-13T13:25:26.829Z,21.50
2018-08-13T13:27:56.908Z,22.00
2018-08-13T13:30:26.118Z,21.60
2018-08-13T13:32:55.288Z,22.00
2018-08-13T13:35:24.509Z,22.00
2018-08-13T13:37:53.641Z,21.90
2018-08-13T13:40:22.819Z,21.60
2018-08-13T13:42:51.988Z,21.60
2018-08-13T13:45:21.201Z,21.80
2018-08-13T13:47:50.353Z,22.10
2018-08-13T13:50:20.010Z,21.80
2018-08-13T13:52:55.837Z,21.50
2018-08-13T13:55:25.207Z,21.20
2018-08-13T13:57:54.371Z,21.60
2018-08-13T14:00:23.763Z,21.60
2018-08-13T14:02:52.866Z,21.90
2018-08-13T14:05:22.079Z,22.10
2018-08-13T14:07:51.305Z,22.50
2018-08-13T14:10:21.925Z,22.30
2018-08-13T14:12:51.113Z,22.40
2018-08-13T14:15:21.541Z,22.10
2018-08-13T14:17:51.198Z,21.80
2018-08-13T14:20:20.802Z,21.90
2018-08-13T14:22:50.000Z,22.00
2018-08-13T14:25:19.179Z,22.30
2018-08-13T14:27:48.352Z,22.70
2018-08-13T14:30:25.111Z,23.30
2018-08-13T14:32:54.372Z,23.70
2018-08-13T14:35:24.630Z,23.50
2018-08-13T14:37:53.821Z,23.40
2018-08-13T14:40:23.289Z,22.70
2018-08-13T14:42:52.525Z,22.40
2018-08-13T14:45:21.843Z,22.40
2018-08-13T14:47:52.103Z,22.50
2018-08-13T14:50:21.521Z,22.40
2018-08-13T14:52:50.780Z,22.20
2018-08-13T14:55:21.382Z,22.40
2018-08-13T14:57:50.616Z,22.60
2018-08-13T15:00:23.260Z,23.00
2018-08-13T15:02:53.166Z,22.90
2018-08-13T15:05:22.994Z,22.70
2018-08-13T15:07:52.204Z,22.60
2018-08-13T15:10:22.633Z,22.40
2018-08-13T15:12:51.960Z,22.40
2018-08-13T15:15:21.118Z,22.80
2018-08-13T15:17:50.968Z,22.60
2018-08-13T15:20:25.469Z,22.60
2018-08-13T15:22:55.184Z,22.90
2018-08-13T15:25:24.658Z,23.00
2018-08-13T15:27:53.933Z,22.80
2018-08-13T15:30:23.851Z,23.00
2018-08-13T15:32:53.644Z,23.10
2018-08-13T15:35:22.982Z,22.90
2018-08-13T15:37:52.148Z,22.60
2018-08-13T15:40:21.317Z,22.30
2018-08-13T15:42:50.539Z,22.20
2018-08-13T15:45:21.003Z,22.20
2018-08-13T15:47:50.401Z,22.40
2018-08-13T15:50:20.711Z,22.40
2018-08-13T15:52:51.027Z,22.40
2018-08-13T15:55:20.366Z,22.50
2018-08-13T15:57:49.621Z,22.30
2018-08-13T16:00:22.607Z,22.20
2018-08-13T16:02:52.228Z,22.20
2018-08-13T16:05:21.721Z,22.40
2018-08-13T16:07:51.460Z,22.60
2018-08-13T16:10:20.639Z,22.60
2018-08-13T16:12:49.919Z,22.60
2018-08-13T16:15:19.084Z,22.50
2018-08-13T16:17:48.351Z,22.50
2018-08-13T16:20:18.863Z,22.50
2018-08-13T16:22:48.987Z,22.50
2018-08-13T16:25:18.708Z,22.70
2018-08-13T16:27:48.186Z,22.70
2018-08-13T16:30:32.179Z,22.70
2018-08-13T16:33:01.301Z,22.70
2018-08-13T16:35:30.443Z,22.90
2018-08-13T16:37:59.648Z,23.40
2018-08-13T16:40:28.737Z,23.10
2018-08-13T16:42:57.909Z,23.10
2018-08-13T16:45:27.066Z,23.10
2018-08-13T16:47:56.229Z,23.10
2018-08-13T16:50:28.159Z,22.90
2018-08-13T16:52:57.729Z,22.70
2018-08-13T16:55:29.756Z,22.70
2018-08-13T16:57:59.734Z,22.60
2018-08-13T17:00:30.230Z,22.60
2018-08-13T17:03:00.575Z,22.60
2018-08-13T17:05:32.573Z,22.80
2018-08-13T17:08:01.821Z,22.90
2018-08-13T17:10:31.118Z,22.70
2018-08-13T17:13:00.284Z,22.40
2018-08-13T17:15:30.805Z,22.20
2018-08-13T17:18:01.804Z,22.00
2018-08-13T17:20:37.260Z,21.90
2018-08-13T17:23:06.404Z,21.80
2018-08-13T17:25:35.552Z,21.70
2018-08-13T17:28:04.884Z,21.60
2018-08-13T17:30:34.405Z,21.50
2018-08-13T17:33:03.541Z,21.40
2018-08-13T17:35:34.147Z,21.30
2018-08-13T17:38:04.853Z,21.30
2018-08-13T17:40:34.061Z,21.30
2018-08-13T17:43:03.579Z,21.10
2018-08-13T17:45:32.933Z,21.20
2018-08-13T17:48:02.065Z,21.10
2018-08-13T17:50:31.305Z,20.70
2018-08-13T17:53:00.450Z,20.60
2018-08-13T17:55:29.637Z,20.50
2018-08-13T17:57:58.752Z,20.40
2018-08-13T18:00:28.169Z,20.30
2018-08-13T18:02:57.401Z,20.30
2018-08-13T18:05:27.460Z,20.20
2018-08-13T18:07:57.472Z,19.90
2018-08-13T18:10:29.588Z,19.80
2018-08-13T18:13:00.439Z,19.70
2018-08-13T18:15:30.215Z,19.60
2018-08-13T18:17:59.477Z,19.50
2018-08-13T18:20:28.704Z,19.50
2018-08-13T18:22:57.999Z,19.40
2018-08-13T18:25:27.212Z,19.40
2018-08-13T18:27:56.387Z,19.40
2018-08-13T18:30:27.078Z,19.40
2018-08-13T18:32:56.340Z,19.30
2018-08-13T18:35:25.585Z,19.20
2018-08-13T18:37:54.866Z,19.10
2018-08-13T18:40:27.810Z,18.90
2018-08-13T18:42:57.104Z,18.90
2018-08-13T18:45:26.356Z,18.80
2018-08-13T18:47:55.608Z,18.70
2018-08-13T18:50:24.892Z,18.60
2018-08-13T18:52:54.287Z,18.50
2018-08-13T18:55:24.653Z,18.50
2018-08-13T18:57:54.360Z,18.50
2018-08-13T19:00:27.141Z,18.40
2018-08-13T19:02:57.447Z,18.40
2018-08-13T19:05:26.609Z,18.30
2018-08-13T19:07:55.807Z,18.30
2018-08-13T19:10:25.057Z,18.30
2018-08-13T19:12:54.220Z,18.30
2018-08-13T19:15:25.150Z,18.30
2018-08-13T19:17:54.558Z,18.30
2018-08-13T19:20:23.973Z,18.40
2018-08-13T19:22:53.164Z,18.40
2018-08-13T19:25:24.454Z,18.30
2018-08-13T19:27:53.794Z,18.30
2018-08-13T19:30:23.853Z,18.30
2018-08-13T19:32:53.452Z,18.30
2018-08-13T19:35:22.641Z,18.30
2018-08-13T19:37:51.845Z,18.30
2018-08-13T19:40:23.853Z,18.20
2018-08-13T19:42:53.050Z,18.30
2018-08-13T19:45:23.051Z,18.20
2018-08-13T19:47:52.776Z,18.10
2018-08-13T19:50:22.247Z,18.00
2018-08-13T19:52:51.745Z,18.00
2018-08-13T19:55:21.147Z,17.90
2018-08-13T19:57:50.345Z,17.90
2018-08-13T20:00:22.387Z,17.80
2018-08-13T20:02:52.244Z,17.70
2018-08-13T20:05:22.989Z,17.60
2018-08-13T20:07:52.898Z,17.60
2018-08-13T20:10:22.210Z,17.50
2018-08-13T20:12:51.413Z,17.50
2018-08-13T20:15:20.670Z,17.50
2018-08-13T20:17:49.832Z,17.50
2018-08-13T20:20:20.404Z,17.40
2018-08-13T20:22:50.128Z,17.40
2018-08-13T20:25:20.213Z,17.20
2018-08-13T20:27:50.189Z,17.20
2018-08-13T20:30:20.786Z,17.20
2018-08-13T20:32:51.146Z,17.10
2018-08-13T20:35:20.643Z,17.10
2018-08-13T20:37:49.797Z,17.00
2018-08-13T20:40:20.056Z,16.90
2018-08-13T20:42:50.449Z,16.80
2018-08-13T20:45:21.123Z,16.80
2018-08-13T20:47:50.264Z,16.80
2018-08-13T20:50:20.795Z,16.70
2018-08-13T20:52:51.256Z,16.70
2018-08-13T20:55:24.997Z,16.70
2018-08-13T20:57:54.231Z,16.60
2018-08-13T21:00:25.088Z,16.60
2018-08-13T21:02:54.643Z,16.50
2018-08-13T21:05:23.793Z,16.40
2018-08-13T21:07:52.977Z,16.30
2018-08-13T21:10:23.691Z,16.20
2018-08-13T21:12:53.504Z,16.10
2018-08-13T21:15:23.371Z,16.10
2018-08-13T21:17:52.878Z,16.10
2018-08-13T21:20:27.342Z,16.00
2018-08-13T21:22:57.190Z,15.90
2018-08-13T21:25:27.162Z,15.90
2018-08-13T21:27:56.698Z,15.90
2018-08-13T21:30:25.876Z,15.90
2018-08-13T21:32:56.282Z,15.80
2018-08-13T21:35:26.353Z,15.70
2018-08-13T21:37:55.905Z,15.70
2018-08-13T21:40:25.417Z,15.70
2018-08-13T21:42:55.193Z,15.70
2018-08-13T21:45:24.585Z,15.90
2018-08-13T21:47:54.259Z,15.80
2018-08-13T21:50:24.484Z,15.80
2018-08-13T21:52:53.965Z,15.70
2018-08-13T21:55:23.471Z,15.70
2018-08-13T21:57:53.000Z,15.60
2018-08-13T22:00:28.438Z,15.60
2018-08-13T22:02:59.615Z,15.60
2018-08-13T22:05:29.137Z,15.50
2018-08-13T22:07:58.810Z,15.60
2018-08-13T22:10:28.516Z,15.60
2018-08-13T22:12:58.181Z,15.50
2018-08-13T22:15:28.860Z,15.50
2018-08-13T22:18:00.079Z,15.50
2018-08-13T22:20:30.882Z,15.40
2018-08-13T22:23:01.346Z,15.40
2018-08-13T22:25:33.694Z,15.40
2018-08-13T22:28:03.324Z,15.30
2018-08-13T22:30:33.760Z,15.30
2018-08-13T22:33:03.351Z,15.20
2018-08-13T22:35:32.900Z,15.20
2018-08-13T22:38:02.421Z,15.20
2018-08-13T22:40:32.112Z,15.10
2018-08-13T22:43:01.630Z,15.10
2018-08-13T22:45:31.288Z,15.10
2018-08-13T22:48:00.848Z,15.10
2018-08-13T22:50:30.426Z,15.10
2018-08-13T22:53:00.717Z,15.10
2018-08-13T22:55:30.439Z,15.10
2018-08-13T22:57:59.831Z,15.10
2018-08-13T23:00:29.584Z,15.10
2018-08-13T23:02:59.233Z,15.10
2018-08-13T23:05:28.955Z,15.10
2018-08-13T23:07:58.403Z,15.00
2018-08-13T23:10:28.024Z,15.00
2018-08-13T23:12:57.563Z,14.90
2018-08-13T23:15:27.167Z,14.90
2018-08-13T23:17:56.648Z,14.80
2018-08-13T23:20:28.383Z,14.70
2018-08-13T23:23:00.122Z,14.60
2018-08-13T23:25:30.638Z,14.60
2018-08-13T23:28:01.461Z,14.70
2018-08-13T23:30:32.845Z,14.60
2018-08-13T23:33:02.414Z,14.70
2018-08-13T23:35:32.550Z,14.70
2018-08-13T23:38:02.094Z,14.60
2018-08-13T23:40:32.009Z,14.60
2018-08-13T23:43:01.558Z,14.50
2018-08-13T23:45:32.430Z,14.60
2018-08-13T23:48:01.948Z,14.50
2018-08-13T23:50:31.930Z,14.50
2018-08-13T23:53:02.066Z,14.50
2018-08-13T23:55:37.159Z,14.40
2018-08-13T23:58:10.136Z,14.30
